| time (UTC) | temp C | wind direction | speed KPH | gust KPH | rain 1hr cm | rain 24hr cm | rain mn cm | humidity % | barometer mb |
| 20260502163004 | 20 | 340 | 3.2 | 14.5 | 0.00 | 2.57 | 0.00 | 59 | 1021.1 |
| 20260502162004 | 20 | 47 | 1.6 | 19.3 | 0.00 | 2.57 | 0.00 | 61 | 1021.2 |
| 20260502161004 | 19 | 65 | 1.6 | 11.3 | 0.00 | 2.57 | 0.00 | 63 | 1021.2 |
| 20260502152004 | 17 | 75 | 1.6 | 19.3 | 0.00 | 2.57 | 0.00 | 69 | 1021.0 |
| 20260502123004 | 12 | 358 | 3.2 | 8.0 | 0.00 | 2.57 | 0.00 | 88 | 1019.3 |
| 20260502122004 | 12 | 284 | 1.6 | 4.8 | 0.00 | 2.57 | 0.00 | 88 | 1019.2 |
| 20260502121004 | 11 | 2 | 0.0 | 4.8 | 0.00 | 2.57 | 0.00 | 88 | 1018.9 |
| 20260502115003 | 11 | 338 | 0.0 | 4.8 | 0.00 | 2.57 | 0.00 | 87 | 1018.8 |
| 20260502114004 | 11 | 5 | 1.6 | 8.0 | 0.00 | 2.57 | 0.00 | 87 | 1018.6 |
| 20260502113004 | 11 | 333 | 0.0 | 8.0 | 0.00 | 2.57 | 0.00 | 87 | 1018.5 |
| 20260502112004 | 12 | 335 | 1.6 | 8.0 | 0.00 | 2.57 | 0.00 | 87 | 1018.6 |
| 20260502111004 | 12 | 296 | 0.0 | 3.2 | 0.00 | 2.57 | 0.00 | 86 | 1018.5 |
| 20260502110004 | 12 | 317 | 0.0 | 1.6 | 0.00 | 2.57 | 0.00 | 86 | 1018.5 |
| 20260502105004 | 12 | 313 | 0.0 | 3.2 | 0.00 | 2.57 | 0.00 | 85 | 1018.4 |
| 20260502104005 | 12 | 326 | 0.0 | 1.6 | 0.00 | 2.57 | 0.00 | 85 | 1018.2 |
| 20260502102004 | 12 | 65 | 0.0 | 4.8 | 0.00 | 2.57 | 0.00 | 84 | 1017.9 |
| 20260502101004 | 12 | 42 | 0.0 | 1.6 | 0.00 | 2.57 | 0.00 | 84 | 1017.7 |
| 20260502091004 | 13 | 67 | 1.6 | 8.0 | 0.00 | 2.57 | 0.00 | 85 | 1016.5 |
| 20260502070004 | 13 | 88 | 0.0 | 12.9 | 0.00 | 2.57 | 0.00 | 88 | 1016.4 |
| 20260502065004 | 13 | 19 | 0.0 | 12.9 | 0.00 | 2.57 | 0.00 | 89 | 1016.5 |
| 20260502064005 | 13 | 355 | 0.0 | 12.9 | 0.00 | 2.57 | 0.00 | 89 | 1016.4 |
| 20260502061004 | 13 | 348 | 1.6 | 14.5 | 0.00 | 2.57 | 0.00 | 90 | 1016.0 |
| 20260502060004 | 13 | 94 | 0.0 | 9.7 | 0.00 | 2.57 | 0.00 | 90 | 1016.1 |
| 20260502055003 | 13 | 90 | 1.6 | 19.3 | 0.00 | 2.57 | 0.00 | 90 | 1016.0 |
| 20260502054004 | 13 | 353 | 1.6 | 12.9 | 0.00 | 2.57 | 0.00 | 91 | 1016.0 |
| 20260502053004 | 13 | 334 | 1.6 | 8.0 | 0.00 | 2.57 | 0.00 | 91 | 1016.0 |
| 20260502052004 | 13 | 282 | 0.0 | 11.3 | 0.00 | 2.57 | 0.00 | 91 | 1016.1 |
| 20260502051005 | 13 | 48 | 1.6 | 14.5 | 0.00 | 2.57 | 0.00 | 91 | 1016.0 |
| 20260502050004 | 13 | 77 | 1.6 | 12.9 | 0.00 | 2.57 | 0.00 | 91 | 1015.9 |
| 20260502044004 | 13 | 8 | 1.6 | 16.1 | 0.00 | 2.57 | 4.52 | 91 | 1015.8 |
| 20260502043004 | 13 | 324 | 1.6 | 11.3 | 0.00 | 2.57 | 4.52 | 91 | 1015.8 |
| 20260502042003 | 13 | 17 | 0.0 | 9.7 | 0.00 | 2.57 | 4.52 | 92 | 1016.1 |
| 20260502041004 | 13 | 33 | 1.6 | 24.1 | 0.00 | 2.57 | 4.52 | 92 | 1016.0 |
| 20260502040004 | 13 | 282 | 3.2 | 16.1 | 0.00 | 2.57 | 4.52 | 92 | 1015.7 |
| 20260502035004 | 13 | 337 | 1.6 | 14.5 | 0.00 | 2.57 | 4.52 | 92 | 1015.7 |
| 20260502033004 | 13 | 60 | 1.6 | 19.3 | 0.00 | 2.57 | 4.52 | 92 | 1015.6 |
| 20260502032005 | 13 | 18 | 4.8 | 16.1 | 0.00 | 2.57 | 4.52 | 92 | 1015.4 |
| 20260502031004 | 13 | 93 | 0.0 | 16.1 | 0.00 | 2.57 | 4.52 | 92 | 1015.2 |
| 20260502030005 | 13 | 338 | 1.6 | 8.0 | 0.00 | 2.57 | 4.52 | 92 | 1015.0 |
| 20260502025004 | 13 | 37 | 3.2 | 16.1 | 0.05 | 2.57 | 4.52 | 92 | 1014.4 |
| 20260502023005 | 14 | 40 | 1.6 | 16.1 | 0.08 | 2.57 | 4.52 | 91 | 1013.9 |
| 20260502021004 | 15 | 76 | 0.0 | 8.0 | 0.08 | 2.57 | 4.52 | 92 | 1013.5 |
| 20260502020004 | 15 | 54 | 0.0 | 8.0 | 0.10 | 2.57 | 4.52 | 92 | 1013.8 |
| 20260502015004 | 15 | 60 | 0.0 | 12.9 | 0.08 | 2.51 | 4.47 | 92 | 1013.6 |
| 20260502014004 | 14 | 316 | 0.0 | 12.9 | 0.08 | 2.49 | 4.45 | 92 | 1013.6 |
| 20260502013004 | 15 | 37 | 3.2 | 20.9 | 0.08 | 2.49 | 4.45 | 92 | 1013.5 |
| 20260502012003 | 15 | 326 | 1.6 | 12.9 | 0.10 | 2.49 | 4.45 | 92 | 1013.4 |
| 20260502011004 | 15 | 321 | 1.6 | 14.5 | 0.10 | 2.49 | 4.45 | 92 | 1013.1 |
| 20260502010004 | 15 | 318 | 8.0 | 22.5 | 0.10 | 2.46 | 4.42 | 92 | 1012.6 |
| 20260502005004 | 15 | 59 | 3.2 | 16.1 | 0.13 | 2.44 | 4.39 | 92 | 1012.5 |
| 20260502004004 | 15 | 269 | 3.2 | 14.5 | 0.23 | 2.41 | 4.37 | 92 | 1012.9 |
| 20260502003004 | 15 | 333 | 0.0 | 14.5 | 0.33 | 2.41 | 4.37 | 92 | 1012.2 |
| 20260502002004 | 15 | 285 | 1.6 | 14.5 | 0.36 | 2.39 | 4.34 | 92 | 1011.9 |
| 20260502001004 | 15 | 61 | 0.0 | 9.7 | 0.41 | 2.39 | 4.34 | 92 | 1011.8 |
| 20260502000004 | 15 | 46 | 0.0 | 12.9 | 0.43 | 2.36 | 4.32 | 92 | 1011.9 |
| 20260501235004 | 15 | 26 | 1.6 | 16.1 | 0.41 | 2.31 | 4.27 | 92 | 1011.8 |
| 20260501234004 | 15 | 315 | 0.0 | 19.3 | 0.30 | 2.18 | 4.14 | 92 | 1012.4 |
| 20260501231004 | 16 | 92 | 3.2 | 14.5 | 0.10 | 1.98 | 3.94 | 92 | 1010.2 |
| 20260501230004 | 16 | 313 | 0.0 | 12.9 | 0.05 | 1.93 | 3.89 | 92 | 1011.3 |
| 20260501225004 | 16 | 39 | 3.2 | 19.3 | 0.03 | 1.91 | 3.86 | 92 | 1010.5 |
| 20260501224004 | 16 | 65 | 1.6 | 16.1 | 0.03 | 1.88 | 3.84 | 92 | 1010.6 |
| 20260501221004 | 16 | 65 | 3.2 | 20.9 | 0.43 | 1.88 | 3.84 | 92 | 1009.9 |
| 20260501214004 | 16 | 320 | 0.0 | 19.3 | 0.64 | 1.85 | 3.81 | 92 | 1010.9 |
| 20260501213004 | 16 | 111 | 3.2 | 12.9 | 0.58 | 1.78 | 3.73 | 92 | 1011.0 |
| 20260501212004 | 16 | 60 | 1.6 | 8.0 | 0.51 | 1.63 | 3.58 | 92 | 1010.6 |
| 20260501211004 | 16 | 29 | 0.0 | 4.8 | 0.41 | 1.45 | 3.40 | 92 | 1011.0 |
| 20260501210004 | 16 | 69 | 0.0 | 8.0 | 0.33 | 1.30 | 3.25 | 92 | 1010.6 |
| 20260501204004 | 16 | 74 | 3.2 | 16.1 | 0.28 | 1.22 | 3.17 | 92 | 1009.1 |
| 20260501203004 | 17 | 67 | 1.6 | 9.7 | 0.25 | 1.19 | 3.15 | 92 | 1009.4 |
| 20260501200004 | 17 | 60 | 1.6 | 8.0 | 0.10 | 0.97 | 2.92 | 92 | 1009.7 |
| 20260501195004 | 17 | 44 | 0.0 | 14.5 | 0.13 | 0.97 | 2.92 | 92 | 1009.3 |
| 20260501194004 | 17 | 46 | 1.6 | 14.5 | 0.10 | 0.94 | 2.90 | 92 | 1008.9 |
| 20260501193003 | 17 | 36 | 1.6 | 12.9 | 0.13 | 0.94 | 2.90 | 92 | 1009.0 |
| 20260501192004 | 17 | 68 | 1.6 | 4.8 | 0.43 | 0.91 | 2.87 | 92 | 1009.2 |
| 20260501190004 | 17 | 91 | 1.6 | 12.9 | 0.66 | 0.86 | 2.82 | 92 | 1009.8 |
| 20260501185004 | 17 | 21 | 0.0 | 19.3 | 0.71 | 0.84 | 2.79 | 92 | 1009.3 |
| 20260501184004 | 17 | 66 | 3.2 | 19.3 | 0.84 | 0.84 | 2.79 | 92 | 1008.6 |
| 20260501183005 | 17 | 97 | 3.2 | 19.3 | 0.81 | 0.81 | 2.77 | 92 | 1008.9 |
| 20260501182004 | 17 | 94 | 8.0 | 16.1 | 0.56 | 0.48 | 2.44 | 92 | 1008.7 |
| 20260501180004 | 17 | 95 | 4.8 | 19.3 | 0.33 | 0.20 | 2.16 | 92 | 1008.8 |